Extreme weather reports worldwide

High gusts

Station
 
Location
 
Name
 
Wind
Knots
Gust
Knots
Vis
SM
Temp/Dew
C
Baro
inHg
METAR
 
BBA SCBA Balmaceda, CL Balmaceda Airport 29 44 6.21 6/1 29.94 SCBA 011300Z 30029G44KT 9999 SCT030 SCT200 06/01 Q1014
LIMU 29 41 6.21 25/19 29.68 LIMU 011255Z 24029G41KT 9999 FEW020TCU 25/19 Q1005 RMK FEW QUK 4 QUL 3 S VIS MAR 20 KM VIS MIN 9999
MPN EGYP Mount Pleasant, FK Mount Pleasant Airport 28 38 6.21 7/3 29.65 EGYP 011250Z 31028G38KT CAVOK 07/03 Q1004
LIVF 17 37 6.21 30/13 29.73 LIVF 011255Z 20017G37KT 9999 SCT030 30/13 Q1007 RMK SCT MON LIB VAL NIL VIS MIN 9999
EHM PAEH Cape Newenham, US Cape Newenham LRRS Airport 31 37 10 14/13 29.86 PAEH 011314Z AUTO 18031G37KT 10SM -RA FEW005 BKN020 14/13 A2986 RMK AO2 PK WND 19038/1302 SLP112

Station
 
Location
 
Name
 
Wind
Knots
Gust
Knots
Vis
SM
Temp/Dew
C
Baro
inHg
METAR
 
KEMV Emporia, US Emporia Greensville Regional Airport 9 37 1.5 21/21 29.89 KEMV 011355Z AUTO 06009G37KT 1 1/2SM TS BKN006 OVC009 22/21 A2989 RMK AO2 LTG DSNT ALQDS P0099 T02160211
NZCM 28 36 1.8 -27/-34 29.11 NZCM 011355Z AUTO 09028G36KT 2900 BLSN BR FEW002 M28/M34 A2911 RMK AO2 PK WND 09040/1339 VIS 1700V7000 SNB1352E1353 PRESRR SLP865 T12771344 $
MPL LFMT Montpellier/Méditerranée, FR Montpellier-Méditerranée Airport 18 35 6.21 27/7 29.88 LFMT 011330Z AUTO 29018G35KT 260V330 CAVOK 27/07 Q1012 BECMG 30012KT
SVX USSS Yekaterinburg, RU Koltsovo Airport 19 35 5.59 23/15 29.76 USSS 011330Z 32010G18MPS 9000 -TSRA SCT033CB 23/15 Q1008 R26L/290050 R26R/290035 TEMPO VRB22MPS -TSRAGR SQ RMK QFE736/0981
CWOB 27 34 2/2 29.59 CWOB 011300Z AUTO 04027G34KT ////SM SCT002 02/02 A2959
PIZ PPIZ Point Lay, US Point Lay LRRS Airport 25 33 4 7/6 29.66 PPIZ 011256Z AUTO 20025G33KT 4SM BR OVC006 07/07 A2966 RMK AO2 PK WND 20036/1227 RAE04 CIG 005V009 SLP047 T00720067 PNO $
KSY LTCF Kars, TR Kars Airport 20 33 6.21 21/11 30.09 LTCF 011323Z 06020G33KT 020V090 9999 -TSRA FEW025CB BKN035 21/11 Q1019 RETS RMK RWY24 07013KT 040V110
CUC SKCC Cúcuta, CO Camilo Daza International Airport 22 32 6.21 29/18 29.97 SKCC 011300Z 16022G32KT 9999 FEW023 29/18 Q1015 RMK A2997
LIBA Foggia, IT Amendola Air Base 18 31 6.21 39/13 29.76 LIBA 011255Z 25018G31KT CAVOK 39/13 Q1008 RMK FEW FEW200 VIS MIN 9999 WIND THR11 24022KT WIND THR29 /////KT BLU
CWZZ 26 31 / 29.34 CWZZ 011300Z AUTO 01026G31KT ////SM SCT002 SCT017 02/// A2934
TBU NFTF Nuku'alofa, TO Fua'amotu International Airport 26 31 6.21 20/17 29.68 NFTF 011300Z 28026G31KT 9999 -RA SCT016TCU BKN035 20/17 Q1005
PLZ FAPE Port Elizabeth, ZA Port Elizabeth Airport 21 31 6.21 16/12 30.06 FAPE 011303Z 23021G31KT CAVOK 16/12 Q1018 TEMPO 24026G36KT
TLN LFTH Toulon/Hyères/Le Palyvestre, FR Toulon-Hyères Airport 19 31 6.21 27/14 29.79 LFTH 011330Z AUTO 26019G31KT 220V300 9999 FEW001 27/14 Q1009 TEMPO 26030G40KT
AOI LIPY Ancona, IT Ancona Falconara Airport 18 31 6.21 36/9 29.68 LIPY 011350Z AUTO 23018G31KT 9999 NCD 36/09 Q1005
GOU FKKR Garoua, CM Garoua International Airport 20 30 6.21 29/23 29.91 FKKR 011300Z 26020G30KT 9999 BKN020 FEW023CB 29/23 Q1013 NOSIG
CUR TNCC Willemstad, CW Hato International Airport 20 30 6.21 30/24 30.00 TNCC 011310Z 12020G30KT 9999 SCT018 30/24 Q1016 NOSIG
LUR PALU Cape Lisburne, US Cape Lisburne LRRS Airport 18 30 7 5/5 29.74 PALU 011333Z AUTO 21018G30KT 090V250 7SM -SHRA OVC004 05/05 A2974 RMK AO2 WSHFT 1307 SLP071
PPG NSTU Pago Pago, AS Pago Pago International Airport 15 30 10 27/25 29.74 NSTU 011350Z 36015G30KT 10SM SCT017TCU BKN038 OVC100 27/25 A2974 RMK TCU ALQDS SLP071 T02740254
HEA OAHR AF Herat Airport 18 29 6.21 32/-6 29.76 OAHR 011255Z 35018G29KT CAVOK 32/M06 Q1008 RMK A2979 BLU
CEQ LFMD Cannes/Mandelieu, FR Cannes-Mandelieu Airport 18 29 6.21 31/12 29.65 LFMD 011330Z AUTO 27018G29KT 230V310 CAVOK 31/12 Q1004 NOSIG
FOG LIBF Foggia, IT Foggia "Gino Lisa" Airport 17 28 6.21 39/12 29.76 LIBF 011250Z 23017G28KT 190V260 CAVOK 39/12 Q1008
NLG PAOU Nelson Lagoon, US Nelson Lagoon Airport 22 28 10 13/12 29.89 PAOU 011256Z AUTO 13022G28KT 10SM FEW080 OVC110 14/12 A2989 RMK AO2 PK WND 12028/1250 SLP122 T01390122
PTH PAPH Port Heiden, US Port Heiden Airport 22 28 10 16/12 29.96 PAPH 011256Z AUTO 16022G28KT 10SM CLR 16/13 A2996 RMK AO2 PK WND 16028/1252 SLP144 T01610128
POM AYPY Port Moresby, PG Port Moresby Jacksons International Airport 15 28 6.21 25/19 29.88 AYPY 011300Z 16015G28KT 9999 SCT080 25/19 Q1012
YAY CYAY St. Anthony, CA St. Anthony Airport 20 27 9 18/13 29.64 CYAY 011326Z AUTO 22020G27KT 9SM SCT020 BKN026 BKN033 18/13 A2964 RMK SLP040 DENSITY ALT 800FT
TAY EETU Tartu, EE Tartu Airport 17 27 6.21 22/12 29.62 EETU 011350Z AUTO 24017G27KT 210V270 9999 FEW040/// BKN082/// 22/12 Q1003
EPH KEPH Ephrata, US Ephrata Municipal Airport 22 27 1.75 25/16 29.97 KEPH 011353Z AUTO 33022G27KT 1 3/4SM -RA FEW090 OVC100 25/16 A2997 RMK AO2 PK WND 33027/1352 RAB41 SLP136 P0000 T02500161 TSNO $
CDB PACD Cold Bay, US Cold Bay Airport 20 27 4 12/12 29.80 PACD 011353Z AUTO 15020G27KT 4SM -RA BR SCT007 BKN016 OVC025 12/12 A2980 RMK AO2 PK WND 15031/1314 SLP091 P0001 T01220122 TSNO $
YYR CYYR Goose Bay, CA Goose Bay Airport 21 26 15 16/9 29.52 CYYR 011300Z 25021G26KT 15SM FEW025 FEW080 FEW150 FEW260 16/09 A2952 RMK CU1AC1AC1CI1 SLP997
YYT CYYT St. John's, CA St. John's International Airport 19 26 15 19/13 29.89 CYYT 011300Z 27019G26KT 15SM FEW022 FEW220 19/13 A2989 RMK CU1CI1 SLP126 DENSITY ALT 1100FT
CLN SBCI Carolina, BR Brig. Lysias Augusto Rodrigues Airport 14 26 5.59 30/17 30.12 SBCI 011300Z AUTO 09014G26KT 9000 NCD 30/17 Q1020
SRZ SLET Santa Cruz, BO El Trompillo Airport 15 26 6.21 19/1 30.32 SLET 011300Z 16015G26KT 9999 BKN025 OVC070 19/01 Q1027
HSK LEHC Monflorite/Alcalá del Obispo, ES Huesca/Pirineos Airport 14 26 6.21 25/7 29.97 LEHC 011330Z 25014G26KT 190V300 CAVOK 25/07 Q1015
JLR VAJB IN Jabalpur Airport 16 26 3.11 23/21 29.53 VAJB 011330Z 25016G26KT 5000 BR BKN008 BKN020 OVC080 23/21 Q1000
LIMS Piacenza, IT Piacenza San Damiano Air Base 15 25 6.21 28/18 29.65 LIMS 011255Z 23015G25KT 180V280 CAVOK 28/18 Q1004 RMK SCT SCT110 VIS MIN 9999 WIND THR30 23016KT BLU
LIRK 9 25 / LIRK 011255Z AUTO 35009G25KT //// ///// Q////
YJT CYJT Stephenville, CA Stephenville Airport 17 25 15 18/16 29.79 CYJT 011300Z 23017G25KT 15SM SCT012 SCT100 18/16 A2979 RMK SC3AC1 AC TR SLP091 DENSITY ALT 700FT
CEP SLCP Concepción, BO Concepción Airport 15 25 6.21 21/13 30.32 SLCP 011300Z 17015G25KT 9999 FEW070 21/13 Q1027
K0CO 15 25 10 2/-5 30.81 K0CO 011335Z AUTO 14015G25KT 10SM BKN024 OVC040 02/M05 A3081 RMK AO2
KPN PAKI Kipnuk, US Kipnuk Airport 19 24 12/12 29.76 PAKI 011256Z AUTO 17019G24KT OVC003 12/12 A2976 RMK AO2 SLP081 T01220122 PWINO $
YGR CYGR ÃŽles-de-la-Madeleine, CA ÃŽles-de-la-Madeleine Airport 18 24 20 19/14 29.81 CYGR 011300Z 25018G24KT 20SM FEW020 FEW270 19/14 A2981 RMK CU1CI2 CU TR SLP097 DENSITY ALT 700FT
YPX CYPX Puvirnituq, CA Puvirnituq Airport 18 24 9 9/7 29.77 CYPX 011300Z AUTO 31018G24KT 9SM FEW055 SCT074 09/07 A2977 RMK SLP085
VVI SLVR Santa Cruz, BO Viru Viru International Airport 14 24 6.21 20/-1 30.32 SLVR 011300Z 18014G24KT 9999 SCT025 BKN070 20/M01 Q1027
TAZ UTAT DaÅŸoguz, TM DaÅŸoguz Airport 14 24 6.21 38/3 29.70 UTAT 011300Z 03014G24KT CAVOK 38/03 Q1006 R08/CLRD70 NOSIG
SOZ LFKS Solenzara, FR Solenzara (BA 126) Air Base 10 24 6.21 31/9 29.79 LFKS 011330Z AUTO VRB10G24KT CAVOK 31/09 Q1009